Latest Weather Observations for Mildura

IDV60801

Issued at 12:31 pm EDT Monday 2 February 2015 (issued every 30 minutes, with the page automatically refreshed every 10 minutes)

About weather observations | Map of weather stations | Latest weather observations for VIC | Other Formats
Station Details ID: 076031 Name: MILDURA AIRPORT Lat: -34.24 Lon: 142.09 Height: 50.0 m
Data from the previous 72 hours. | See also: Recent months at Mildura
Date/Time
EDT
Temp
°C
App
Temp
°C
Dew
Point
Rel
Hum
%
Delta-T
°C
Wind Press
QNH
hPa
Press
MSL
hPa
Rain
since 9 am
mm
Dir
 
Spd
km/h
Gust
km/h
Spd
kts
Gust
kts
02/12:30pm 22.8 18.2 8.1 39 7.7 S 22 33 12 18 1018.2 1017.9 0.0
02/12:00pm 21.6 17.1 8.5 43 6.9 SSE 22 37 12 20 1018.4 1018.1 0.0
02/11:30am 21.4 17.3 8.7 44 6.7 SSE 20 32 11 17 1018.6 1018.3 0.0
02/11:00am 20.2 15.8 8.8 48 6.0 SSE 22 37 12 20 1018.5 1018.2 0.0
02/10:30am 18.5 14.0 8.5 52 5.2 SSE 22 35 12 19 1018.6 1018.3 0.0
02/10:00am 17.8 12.7 7.8 52 5.1 SSE 24 35 13 19 1018.6 1018.3 0.0
02/09:30am 16.3 11.2 7.8 57 4.3 S 24 35 13 19 1018.6 1018.3 0.0
02/09:00am 15.2 10.5 7.7 61 3.7 S 22 37 12 20 1018.5 1018.2 0.0
02/08:30am 14.7 10.3 7.5 62 3.6 S 20 32 11 17 1018.1 1017.8 0.0
02/08:00am 14.0 9.8 7.3 64 3.3 SSW 19 30 10 16 1017.7 1017.4 0.0
02/07:30am 13.7 9.3 7.5 66 3.0 S 20 32 11 17 1017.1 1016.8 0.0
02/07:00am 13.5 9.3 7.5 67 2.9 SSW 19 28 10 15 1016.5 1016.3 0.0
02/06:30am 13.2 9.0 7.6 69 2.7 S 19 30 10 16 1016.4 1016.2 0.0
02/06:00am 13.3 9.5 7.7 69 2.8 S 17 22 9 12 1016.2 1016.0 0.0
02/05:30am 13.6 9.9 7.8 68 2.9 S 17 26 9 14 1016.0 1015.8 0.0
02/05:00am 13.7 10.4 7.9 68 2.9 S 15 28 8 15 1015.8 1015.6 0.0
02/04:30am 14.2 9.9 7.9 66 3.1 S 20 32 11 17 1015.6 1015.4 0.0
02/04:00am 14.6 10.3 7.9 64 3.3 S 20 30 11 16 1015.6 1015.4 0.0
02/03:30am 14.9 10.6 7.2 60 3.8 S 19 28 10 15 1015.5 1015.3 0.0
02/03:00am 15.3 11.0 7.1 58 4.0 S 19 32 10 17 1015.5 1015.3 0.0
02/02:30am 15.8 11.6 7.3 57 4.2 S 19 32 10 17 1015.6 1015.4 0.0
02/02:00am 16.1 11.8 7.1 55 4.5 S 19 32 10 17 1015.6 1015.4 0.0
02/01:30am 16.7 12.2 7.1 53 4.8 S 20 35 11 19 1015.8 1015.6 0.0
02/01:00am 17.5 13.3 7.3 51 5.1 S 19 32 10 17 1015.7 1015.5 0.0
02/12:30am 18.5 13.3 7.3 48 5.7 S 24 39 13 21 1015.4 1015.2 0.0
02/12:00am 19.4 14.9 6.8 44 6.3 S 20 32 11 17 1015.1 1014.9 0.0
 
Date/Time
EDT
Temp
°C
App
Temp
°C
Dew
Point
Rel
Hum
%
Delta-T
°C
Wind Press
QNH
hPa
Press
MSL
hPa
Rain
since 9 am
mm
Dir
 
Spd
km/h
Gust
km/h
Spd
kts
Gust
kts
01/11:30pm 20.1 15.5 5.4 38 7.2 S 19 30 10 16 1014.7 1014.5 0.0
01/11:00pm 20.7 16.6 4.3 34 7.9 S 15 24 8 13 1014.3 1014.1 0.0
01/10:30pm 21.0 17.2 4.1 33 8.2 S 13 22 7 12 1013.9 1013.7 0.0
01/10:00pm 21.7 16.8 4.3 32 8.5 S 19 30 10 16 1013.5 1013.3 0.0
01/09:30pm 22.4 17.8 3.5 29 9.1 SSE 17 24 9 13 1013.2 1013.0 0.0
01/09:00pm 23.2 18.1 4.2 29 9.4 S 20 33 11 18 1012.9 1012.7 0.0
01/08:30pm 24.0 19.4 3.9 27 9.9 S 17 33 9 18 1012.4 1012.2 0.0
01/08:00pm 25.1 20.3 2.5 23 10.9 S 17 30 9 16 1012.2 1012.0 0.0
01/07:30pm 25.9 20.7 2.6 22 11.3 S 19 30 10 16 1012.1 1011.9 0.0
01/07:00pm 26.2 20.9 2.8 22 11.5 S 20 44 11 24 1011.9 1011.7 0.0
01/06:30pm 26.4 20.0 3.0 22 11.5 S 26 37 14 20 1011.8 1011.6 0.0
01/06:00pm 26.3 20.1 2.3 21 11.7 S 24 33 13 18 1011.8 1011.6 0.0
01/05:30pm 26.4 20.7 3.0 22 11.5 S 22 39 12 21 1011.8 1011.6 0.0
01/05:00pm 26.5 21.1 4.3 24 11.2 SSW 22 35 12 19 1012.1 1011.9 0.0
01/04:30pm 26.4 20.3 4.8 25 11.0 S 26 43 14 23 1012.1 1011.9 0.0
01/04:00pm 26.0 21.1 5.0 26 10.7 SSW 20 37 11 20 1012.3 1012.1 0.0
01/03:30pm 25.4 20.5 4.0 25 10.7 S 19 32 10 17 1012.5 1012.3 0.0
01/03:00pm 25.4 20.4 4.5 26 10.5 SSW 20 35 11 19 1012.7 1012.5 0.0
01/02:30pm 23.8 18.6 3.7 27 9.8 SSW 20 30 11 16 1013.0 1012.8 0.0
01/02:00pm 23.3 17.9 4.3 29 9.4 S 22 37 12 20 1013.3 1013.1 0.0
01/01:30pm 22.5 17.1 4.5 31 8.9 S 22 33 12 18 1013.7 1013.5 0.0
01/01:00pm 21.6 16.8 5.5 35 8.0 SSW 20 32 11 17 1014.2 1014.0 0.0
01/12:30pm 20.0 15.1 5.3 38 7.2 SW 20 33 11 18 1014.6 1014.4 0.0
01/12:00pm 19.8 15.0 5.5 39 7.0 SSW 20 33 11 18 1014.8 1014.6 0.0
01/11:30am 19.3 14.4 5.0 39 7.0 S 20 37 11 20 1015.1 1014.9 0.0
01/11:00am 18.7 14.0 5.9 43 6.3 SSW 20 33 11 18 1015.3 1015.1 0.0
01/10:30am 18.4 13.7 5.9 44 6.1 S 20 37 11 20 1015.4 1015.2 0.0
01/10:00am 17.2 12.4 5.8 47 5.5 S 20 28 11 15 1015.3 1015.1 0.0
01/09:30am 17.2 12.6 6.4 49 5.3 S 20 33 11 18 1015.2 1015.0 0.0
01/09:00am 16.1 11.5 6.3 52 4.8 S 20 28 11 15 1015.0 1014.8 0.0
01/08:30am 14.9 10.5 6.5 57 4.1 S 19 30 10 16 1014.7 1014.5 0.0
01/08:00am 13.8 10.2 6.7 62 3.4 SSW 15 22 8 12 1014.2 1014.0 0.0
01/07:30am 12.7 9.0 6.5 66 3.0 SSW 15 22 8 12 1013.9 1013.7 0.0
01/07:00am 12.4 9.2 6.7 68 2.7 SSW 13 19 7 10 1013.6 1013.4 0.0
01/06:30am 12.8 9.2 6.8 67 2.9 SSW 15 19 8 10 1013.3 1013.1 0.0
01/06:00am 13.7 10.5 6.8 63 3.3 S 13 20 7 11 1013.2 1013.0 0.0
01/05:30am 13.9 10.7 7.0 63 3.4 S 13 20 7 11 1013.0 1012.8 0.0
01/05:00am 14.4 11.3 7.2 62 3.5 S 13 20 7 11 1012.8 1012.6 0.0
01/04:30am 14.9 11.0 7.2 60 3.8 S 17 26 9 14 1012.7 1012.5 0.0
01/04:00am 15.5 12.3 7.0 57 4.2 S 13 20 7 11 1012.6 1012.4 0.0
01/03:30am 15.8 11.9 7.0 56 4.3 S 17 28 9 15 1012.7 1012.5 0.0
01/03:00am 16.2 12.3 7.2 55 4.5 S 17 24 9 13 1012.6 1012.4 0.0
01/02:30am 16.7 12.5 7.4 54 4.7 S 19 28 10 15 1012.6 1012.4 0.0
01/02:00am 17.3 12.5 7.4 52 5.0 S 22 33 12 18 1012.5 1012.3 0.0
01/01:30am 18.0 13.2 7.4 50 5.4 S 22 37 12 20 1012.5 1012.3 0.0
01/01:00am 19.0 13.8 7.1 46 6.0 S 24 37 13 20 1012.5 1012.3 0.0
01/12:30am 20.0 14.4 7.1 43 6.6 SSE 26 39 14 21 1012.2 1012.0 0.0
01/12:00am 21.0 15.5 5.8 37 7.6 SSE 24 35 13 19 1011.9 1011.7 0.0
 
Date/Time
EDT
Temp
°C
App
Temp
°C
Dew
Point
Rel
Hum
%
Delta-T
°C
Wind Press
QNH
hPa
Press
MSL
hPa
Rain
since 9 am
mm
Dir
 
Spd
km/h
Gust
km/h
Spd
kts
Gust
kts
31/11:30pm 21.8 16.9 5.3 34 8.2 SSE 20 32 11 17 1011.7 1011.5 0.0
31/11:00pm 22.0 18.0 5.0 33 8.4 S 15 22 8 12 1011.8 1011.6 0.0
31/10:30pm 22.5 19.2 4.5 31 8.9 S 11 15 6 8 1011.5 1011.3 0.0
31/10:00pm 23.1 19.9 5.1 31 9.0 S 11 17 6 9 1011.2 1011.0 0.0
31/09:30pm 23.7 20.5 5.1 30 9.3 S 11 15 6 8 1011.0 1010.8 0.0
31/09:00pm 24.3 21.4 4.6 28 9.9 SSW 9 15 5 8 1010.7 1010.5 0.0
31/08:30pm 25.4 21.4 5.1 27 10.3 SSW 15 20 8 11 1010.6 1010.4 0.0
31/08:00pm 26.8 23.2 5.1 25 11.1 SSW 13 22 7 12 1010.3 1010.1 0.0
31/07:30pm 26.9 22.2 5.2 25 11.1 S 19 28 10 15 1009.8 1009.6 0.0
31/07:00pm 27.2 23.4 6.0 26 11.1 SSW 15 22 8 12 1009.7 1009.5 0.0
31/06:30pm 27.3 23.2 6.1 26 11.1 SSW 17 30 9 16 1009.6 1009.4 0.0
31/06:00pm 27.7 23.9 5.9 25 11.4 SSW 15 24 8 13 1009.7 1009.5 0.0
31/05:30pm 26.9 23.0 5.2 25 11.1 SSW 15 30 8 16 1010.0 1009.8 0.0
31/05:00pm 27.4 23.0 4.5 23 11.7 SSW 17 30 9 16 1010.4 1010.2 0.0
31/04:30pm 27.6 23.4 4.0 22 11.9 SW 15 28 8 15 1010.6 1010.4 0.0
31/04:00pm 27.2 22.3 2.3 20 12.2 SW 17 28 9 15 1010.7 1010.5 0.0
31/03:30pm 26.9 22.0 2.1 20 12.0 SW 17 32 9 17 1011.0 1010.8 0.0
31/03:00pm 26.9 22.0 2.1 20 12.1 SW 17 37 9 20 1011.3 1011.1 0.0
31/02:30pm 26.1 20.9 3.4 23 11.2 SW 20 35 11 19 1011.6 1011.4 0.0
31/02:00pm 25.5 20.8 5.1 27 10.4 SW 19 32 10 17 1012.0 1011.8 0.0
31/01:30pm 24.9 20.1 5.7 29 9.8 SW 20 48 11 26 1012.4 1012.2 0.0
31/01:00pm 25.1 21.0 6.3 30 9.7 SW 17 30 9 16 1012.8 1012.6 0.0
31/12:30pm 23.6 19.5 6.0 32 9.0 SSW 17 30 9 16 1013.2 1013.0 0.0
31/12:00pm 22.8 19.0 5.7 33 8.6 SSW 15 28 8 15 1013.7 1013.5 0.0
31/11:30am 21.7 18.7 6.0 36 7.9 SSE 11 19 6 10 1013.8 1013.6 0.0
31/11:00am 20.7 18.2 6.6 40 7.1 S 9 20 5 11 1013.7 1013.5 0.0
31/10:30am 19.8 17.1 7.2 44 6.4 SE 11 20 6 11 1013.8 1013.6 0.0
31/10:00am 18.6 15.4 6.8 46 5.9 SSE 13 22 7 12 1014.0 1013.8 0.0
31/09:30am 18.0 14.5 7.1 49 5.5 SSE 15 22 8 12 1013.7 1013.5 0.0
31/09:00am 17.1 14.1 7.5 53 4.8 SSE 13 19 7 10 1013.8 1013.6 0.0
31/08:30am 15.6 12.6 7.6 59 4.0 S 13 20 7 11 1013.7 1013.5 0.0
31/08:00am 14.8 11.8 7.6 62 3.6 S 13 22 7 12 1013.3 1013.1 0.0
31/07:30am 13.8 11.1 7.3 65 3.2 S 11 17 6 9 1013.1 1012.9 0.0
31/07:00am 13.2 10.4 7.0 66 3.0 S 11 17 6 9 1012.7 1012.5 0.0
31/06:30am 13.6 10.7 6.7 63 3.3 S 11 17 6 9 1012.4 1012.2 0.0
31/06:00am 14.1 10.4 6.5 60 3.7 S 15 20 8 11 1012.1 1011.9 0.0
31/05:30am 14.6 10.8 5.9 56 4.2 S 15 24 8 13 1011.8 1011.6 0.0
31/05:00am 15.3 11.2 6.1 54 4.4 S 17 24 9 13 1011.8 1011.6 0.0
31/04:30am 15.9 11.8 6.1 52 4.8 S 17 26 9 14 1011.7 1011.5 0.0
31/04:00am 16.2 12.0 5.5 49 5.1 S 17 24 9 13 1011.4 1011.2 0.0
31/03:30am 16.7 13.1 5.0 46 5.6 S 13 22 7 12 1011.4 1011.2 0.0
31/03:00am 16.7 12.9 4.1 43 5.9 S 13 19 7 10 1011.2 1011.0 0.0
31/02:30am 16.8 13.2 2.8 39 6.4 S 11 19 6 10 1011.3 1011.1 0.0
31/02:00am 17.8 13.3 2.2 35 7.1 SSE 15 22 8 12 1011.3 1011.1 0.0
31/01:30am 16.5 13.0 1.0 35 6.8 SSW 9 11 5 6 1011.4 1011.2 0.0
31/01:00am 17.3 14.2 1.3 34 7.1 S 7 11 4 6 1011.4 1011.2 0.0
31/12:30am 16.7 13.6 1.2 35 6.8 S 7 9 4 5 1011.5 1011.3 0.0
31/12:00am 17.7 14.5 0.8 32 7.5 S 7 9 4 5 1011.5 1011.3 0.0
 
Date/Time
EDT
Temp
°C
App
Temp
°C
Dew
Point
Rel
Hum
%
Delta-T
°C
Wind Press
QNH
hPa
Press
MSL
hPa
Rain
since 9 am
mm
Dir
 
Spd
km/h
Gust
km/h
Spd
kts
Gust
kts
30/11:30pm 18.1 15.1 0.7 31 7.7 S 6 7 3 4 1011.6 1011.4 0.0
30/11:00pm 19.5 16.5 1.0 29 8.3 SSE 6 9 3 5 1011.7 1011.5 0.0
30/10:30pm 20.6 17.3 0.4 26 9.1 S 7 9 4 5 1011.7 1011.5 0.0
30/10:00pm 22.1 18.4 0.0 23 10.0 S 9 13 5 7 1011.7 1011.5 0.0
30/09:30pm 22.7 19.1 0.5 23 10.1 S 9 15 5 8 1011.4 1011.2 0.0
30/09:00pm 23.7 19.7 0.7 22 10.6 S 11 17 6 9 1011.1 1010.9 0.0
30/08:30pm 24.9 20.4 -0.3 19 11.5 S 13 20 7 11 1010.8 1010.6 0.0
30/08:00pm 25.9 20.1 -0.2 18 12.1 SSE 20 30 11 16 1010.7 1010.5 0.0
30/07:30pm 26.6 21.4 0.4 18 12.3 S 17 32 9 17 1010.5 1010.3 0.0
30/07:00pm 26.9 21.3 -0.2 17 12.6 SSE 19 28 10 15 1010.3 1010.1 0.0
30/06:30pm 27.3 22.1 0.1 17 12.8 SSE 17 28 9 15 1010.4 1010.2 0.0
30/06:00pm 27.1 21.9 0.0 17 12.7 S 17 26 9 14 1010.6 1010.4 0.0
30/05:30pm 27.6 22.3 -0.5 16 13.1 S 17 30 9 16 1010.7 1010.5 0.0
30/05:00pm 27.5 21.6 -0.5 16 13.1 S 20 32 11 17 1011.1 1010.9 0.0
30/04:30pm 27.8 22.0 -0.3 16 13.2 SSE 20 30 11 16 1011.2 1011.0 0.0
30/04:00pm 26.7 20.2 -2.1 15 13.0 SSE 22 37 12 20 1011.5 1011.3 0.0
30/03:30pm 26.6 20.8 -0.4 17 12.5 SSE 20 37 11 20 1011.8 1011.6 0.0
30/03:00pm 26.8 21.9 2.0 20 12.0 S 17 28 9 15 1012.4 1012.2 0.0
30/02:30pm 25.5 21.8 2.2 22 11.2 SSW 11 20 6 11 1012.8 1012.6 0.0
30/02:00pm 25.8 21.1 3.1 23 11.1 S 17 30 9 16 1013.2 1013.0 0.0
30/01:30pm 23.9 19.4 4.3 28 9.7 S 17 28 9 15 1013.8 1013.6 0.0
30/01:00pm 24.2 20.2 5.1 29 9.6 SSE 15 26 8 14 1014.1 1013.9 0.0

Other Formats:

Comma delimited format used in spreadsheet applications
http://www.bom.gov.au/fwo/IDV60801/IDV60801.94693.axf

JavaScript Object Notation format (JSON) in row-major order
http://www.bom.gov.au/fwo/IDV60801/IDV60801.94693.json